sensor_id;sensor_type;location;lat;lon;timestamp;P1;durP1;ratioP1;P2;durP2;ratioP2
7583;SDS011;74673;41.756;25.992;2024-02-14T00:00:26;1.10;;;1.10;;
7583;SDS011;74673;41.756;25.992;2024-02-14T00:02:53;1.50;;;1.40;;
7583;SDS011;74673;41.756;25.992;2024-02-14T00:05:20;1.57;;;1.47;;
7583;SDS011;74673;41.756;25.992;2024-02-14T00:07:48;1.37;;;1.37;;
7583;SDS011;74673;41.756;25.992;2024-02-14T00:10:15;1.40;;;1.40;;
7583;SDS011;74673;41.756;25.992;2024-02-14T00:12:42;1.30;;;1.30;;
7583;SDS011;74673;41.756;25.992;2024-02-14T00:15:09;1.30;;;1.30;;
7583;SDS011;74673;41.756;25.992;2024-02-14T00:17:38;2.30;;;1.37;;
7583;SDS011;74673;41.756;25.992;2024-02-14T00:20:05;1.13;;;1.13;;
7583;SDS011;74673;41.756;25.992;2024-02-14T00:22:35;1.13;;;1.13;;
7583;SDS011;74673;41.756;25.992;2024-02-14T00:25:03;1.10;;;1.10;;
7583;SDS011;74673;41.756;25.992;2024-02-14T00:27:30;1.10;;;1.10;;
7583;SDS011;74673;41.756;25.992;2024-02-14T00:29:57;1.27;;;1.20;;
7583;SDS011;74673;41.756;25.992;2024-02-14T00:32:24;1.43;;;1.40;;
7583;SDS011;74673;41.756;25.992;2024-02-14T00:34:52;1.53;;;1.43;;
7583;SDS011;74673;41.756;25.992;2024-02-14T00:37:19;1.43;;;1.33;;
7583;SDS011;74673;41.756;25.992;2024-02-14T00:39:46;1.73;;;1.63;;
7583;SDS011;74673;41.756;25.992;2024-02-14T00:42:15;1.30;;;1.30;;
7583;SDS011;74673;41.756;25.992;2024-02-14T00:44:42;1.30;;;1.30;;
7583;SDS011;74673;41.756;25.992;2024-02-14T00:47:09;3.03;;;1.40;;
7583;SDS011;74673;41.756;25.992;2024-02-14T00:49:36;1.27;;;1.27;;
7583;SDS011;74673;41.756;25.992;2024-02-14T00:52:05;1.33;;;1.33;;
7583;SDS011;74673;41.756;25.992;2024-02-14T00:54:33;1.27;;;1.27;;
7583;SDS011;74673;41.756;25.992;2024-02-14T00:57:00;1.13;;;1.13;;
7583;SDS011;74673;41.756;25.992;2024-02-14T00:59:27;1.27;;;1.27;;
7583;SDS011;74673;41.756;25.992;2024-02-14T01:01:54;1.03;;;1.03;;
7583;SDS011;74673;41.756;25.992;2024-02-14T01:04:21;1.30;;;1.30;;
7583;SDS011;74673;41.756;25.992;2024-02-14T01:06:48;1.00;;;1.00;;
7583;SDS011;74673;41.756;25.992;2024-02-14T01:09:18;1.30;;;1.30;;
7583;SDS011;74673;41.756;25.992;2024-02-14T01:11:45;1.50;;;1.40;;
7583;SDS011;74673;41.756;25.992;2024-02-14T01:14:13;1.20;;;1.20;;
7583;SDS011;74673;41.756;25.992;2024-02-14T01:16:44;1.20;;;1.20;;
7583;SDS011;74673;41.756;25.992;2024-02-14T01:19:11;1.20;;;1.20;;
7583;SDS011;74673;41.756;25.992;2024-02-14T01:21:38;1.30;;;1.30;;
7583;SDS011;74673;41.756;25.992;2024-02-14T01:24:05;1.10;;;1.10;;
7583;SDS011;74673;41.756;25.992;2024-02-14T01:26:34;1.57;;;1.47;;
7583;SDS011;74673;41.756;25.992;2024-02-14T01:29:01;1.20;;;1.20;;
7583;SDS011;74673;41.756;25.992;2024-02-14T01:31:30;1.20;;;1.20;;
7583;SDS011;74673;41.756;25.992;2024-02-14T01:33:57;1.30;;;1.30;;
7583;SDS011;74673;41.756;25.992;2024-02-14T01:36:27;1.53;;;1.50;;
7583;SDS011;74673;41.756;25.992;2024-02-14T01:38:54;1.33;;;1.30;;
7583;SDS011;74673;41.756;25.992;2024-02-14T01:41:21;1.30;;;1.20;;
7583;SDS011;74673;41.756;25.992;2024-02-14T01:43:49;1.57;;;1.40;;
7583;SDS011;74673;41.756;25.992;2024-02-14T01:46:16;1.20;;;1.20;;
7583;SDS011;74673;41.756;25.992;2024-02-14T01:48:44;1.20;;;1.20;;
7583;SDS011;74673;41.756;25.992;2024-02-14T01:51:11;1.27;;;1.27;;
7583;SDS011;74673;41.756;25.992;2024-02-14T01:53:39;1.10;;;1.10;;
7583;SDS011;74673;41.756;25.992;2024-02-14T01:56:07;1.20;;;1.20;;
7583;SDS011;74673;41.756;25.992;2024-02-14T01:58:34;1.43;;;1.33;;
7583;SDS011;74673;41.756;25.992;2024-02-14T02:01:04;1.23;;;1.20;;
7583;SDS011;74673;41.756;25.992;2024-02-14T02:03:32;1.10;;;1.10;;
7583;SDS011;74673;41.756;25.992;2024-02-14T02:06:01;1.23;;;1.13;;
7583;SDS011;74673;41.756;25.992;2024-02-14T02:08:28;1.20;;;1.20;;
7583;SDS011;74673;41.756;25.992;2024-02-14T02:10:55;1.10;;;1.10;;
7583;SDS011;74673;41.756;25.992;2024-02-14T02:13:22;1.30;;;1.30;;
7583;SDS011;74673;41.756;25.992;2024-02-14T02:15:50;1.10;;;1.10;;
7583;SDS011;74673;41.756;25.992;2024-02-14T02:18:19;1.53;;;1.10;;
7583;SDS011;74673;41.756;25.992;2024-02-14T02:20:46;1.37;;;1.27;;
7583;SDS011;74673;41.756;25.992;2024-02-14T02:23:15;1.30;;;1.30;;
7583;SDS011;74673;41.756;25.992;2024-02-14T02:25:42;1.27;;;1.27;;
7583;SDS011;74673;41.756;25.992;2024-02-14T02:28:10;1.20;;;1.20;;
7583;SDS011;74673;41.756;25.992;2024-02-14T02:30:36;1.53;;;1.47;;
7583;SDS011;74673;41.756;25.992;2024-02-14T02:33:04;1.13;;;1.13;;
7583;SDS011;74673;41.756;25.992;2024-02-14T02:35:32;1.40;;;1.40;;
7583;SDS011;74673;41.756;25.992;2024-02-14T02:37:59;1.63;;;1.30;;
7583;SDS011;74673;41.756;25.992;2024-02-14T02:40:29;1.13;;;1.13;;
7583;SDS011;74673;41.756;25.992;2024-02-14T02:42:56;1.03;;;1.03;;
7583;SDS011;74673;41.756;25.992;2024-02-14T02:45:24;1.23;;;1.23;;
7583;SDS011;74673;41.756;25.992;2024-02-14T02:47:51;1.10;;;1.10;;
7583;SDS011;74673;41.756;25.992;2024-02-14T02:50:18;1.30;;;1.30;;
7583;SDS011;74673;41.756;25.992;2024-02-14T02:52:46;1.50;;;1.40;;
7583;SDS011;74673;41.756;25.992;2024-02-14T02:55:14;1.90;;;1.80;;
7583;SDS011;74673;41.756;25.992;2024-02-14T02:57:44;1.47;;;1.37;;
7583;SDS011;74673;41.756;25.992;2024-02-14T03:00:11;1.30;;;1.30;;
7583;SDS011;74673;41.756;25.992;2024-02-14T03:02:39;1.33;;;1.33;;
7583;SDS011;74673;41.756;25.992;2024-02-14T03:05:09;1.47;;;1.37;;
7583;SDS011;74673;41.756;25.992;2024-02-14T03:07:42;1.33;;;1.33;;
7583;SDS011;74673;41.756;25.992;2024-02-14T03:10:10;1.63;;;1.53;;
7583;SDS011;74673;41.756;25.992;2024-02-14T03:12:38;1.33;;;1.23;;
7583;SDS011;74673;41.756;25.992;2024-02-14T03:15:06;1.37;;;1.30;;
7583;SDS011;74673;41.756;25.992;2024-02-14T03:17:35;1.20;;;1.20;;
7583;SDS011;74673;41.756;25.992;2024-02-14T03:20:02;1.23;;;1.23;;
7583;SDS011;74673;41.756;25.992;2024-02-14T03:22:35;1.40;;;1.30;;
7583;SDS011;74673;41.756;25.992;2024-02-14T03:25:02;2.73;;;2.03;;
7583;SDS011;74673;41.756;25.992;2024-02-14T03:27:29;1.20;;;1.20;;
7583;SDS011;74673;41.756;25.992;2024-02-14T03:29:57;1.53;;;1.43;;
7583;SDS011;74673;41.756;25.992;2024-02-14T03:32:26;1.70;;;1.60;;
7583;SDS011;74673;41.756;25.992;2024-02-14T03:34:53;1.40;;;1.40;;
7583;SDS011;74673;41.756;25.992;2024-02-14T03:37:20;1.70;;;1.57;;
7583;SDS011;74673;41.756;25.992;2024-02-14T03:39:47;1.60;;;1.50;;
7583;SDS011;74673;41.756;25.992;2024-02-14T03:42:14;1.47;;;1.37;;
7583;SDS011;74673;41.756;25.992;2024-02-14T03:44:42;1.43;;;1.33;;
7583;SDS011;74673;41.756;25.992;2024-02-14T03:47:08;2.87;;;1.60;;
7583;SDS011;74673;41.756;25.992;2024-02-14T03:49:37;1.50;;;1.40;;
7583;SDS011;74673;41.756;25.992;2024-02-14T03:52:06;1.97;;;1.43;;
7583;SDS011;74673;41.756;25.992;2024-02-14T03:54:35;1.80;;;1.70;;
7583;SDS011;74673;41.756;25.992;2024-02-14T03:57:02;2.27;;;1.63;;
7583;SDS011;74673;41.756;25.992;2024-02-14T03:59:30;1.20;;;1.20;;
7583;SDS011;74673;41.756;25.992;2024-02-14T04:01:58;1.27;;;1.23;;
7583;SDS011;74673;41.756;25.992;2024-02-14T04:04:25;1.37;;;1.27;;
7583;SDS011;74673;41.756;25.992;2024-02-14T04:06:53;1.50;;;1.40;;
7583;SDS011;74673;41.756;25.992;2024-02-14T04:09:20;2.03;;;1.60;;
7583;SDS011;74673;41.756;25.992;2024-02-14T04:11:47;2.67;;;1.47;;
7583;SDS011;74673;41.756;25.992;2024-02-14T04:14:14;1.20;;;1.20;;
7583;SDS011;74673;41.756;25.992;2024-02-14T04:16:41;1.43;;;1.33;;
7583;SDS011;74673;41.756;25.992;2024-02-14T04:19:08;1.50;;;1.40;;
7583;SDS011;74673;41.756;25.992;2024-02-14T04:21:36;1.90;;;1.80;;
7583;SDS011;74673;41.756;25.992;2024-02-14T04:24:05;1.60;;;1.50;;
7583;SDS011;74673;41.756;25.992;2024-02-14T04:26:33;2.63;;;2.43;;
7583;SDS011;74673;41.756;25.992;2024-02-14T04:29:01;1.90;;;1.80;;
7583;SDS011;74673;41.756;25.992;2024-02-14T04:31:28;1.47;;;1.37;;
7583;SDS011;74673;41.756;25.992;2024-02-14T04:33:56;1.40;;;1.30;;
7583;SDS011;74673;41.756;25.992;2024-02-14T04:36:23;1.40;;;1.30;;
7583;SDS011;74673;41.756;25.992;2024-02-14T04:38:50;1.40;;;1.40;;
7583;SDS011;74673;41.756;25.992;2024-02-14T04:41:19;1.53;;;1.37;;
7583;SDS011;74673;41.756;25.992;2024-02-14T04:43:46;1.47;;;1.40;;
7583;SDS011;74673;41.756;25.992;2024-02-14T04:46:13;1.50;;;1.40;;
7583;SDS011;74673;41.756;25.992;2024-02-14T04:48:40;1.70;;;1.60;;
7583;SDS011;74673;41.756;25.992;2024-02-14T04:51:07;1.47;;;1.47;;
7583;SDS011;74673;41.756;25.992;2024-02-14T04:53:34;1.50;;;1.50;;
7583;SDS011;74673;41.756;25.992;2024-02-14T04:56:01;1.13;;;1.10;;
7583;SDS011;74673;41.756;25.992;2024-02-14T04:58:30;1.70;;;1.60;;
7583;SDS011;74673;41.756;25.992;2024-02-14T05:00:57;1.30;;;1.30;;
7583;SDS011;74673;41.756;25.992;2024-02-14T05:03:24;1.27;;;1.27;;
7583;SDS011;74673;41.756;25.992;2024-02-14T05:05:51;1.50;;;1.40;;
7583;SDS011;74673;41.756;25.992;2024-02-14T05:08:18;1.23;;;1.23;;
7583;SDS011;74673;41.756;25.992;2024-02-14T05:10:45;1.30;;;1.30;;
7583;SDS011;74673;41.756;25.992;2024-02-14T05:13:12;1.40;;;1.40;;
7583;SDS011;74673;41.756;25.992;2024-02-14T05:15:42;2.57;;;1.97;;
7583;SDS011;74673;41.756;25.992;2024-02-14T05:18:09;2.00;;;1.90;;
7583;SDS011;74673;41.756;25.992;2024-02-14T05:20:36;2.43;;;2.23;;
7583;SDS011;74673;41.756;25.992;2024-02-14T05:23:03;1.60;;;1.50;;
7583;SDS011;74673;41.756;25.992;2024-02-14T05:25:30;1.20;;;1.20;;
7583;SDS011;74673;41.756;25.992;2024-02-14T05:27:58;1.20;;;1.20;;
7583;SDS011;74673;41.756;25.992;2024-02-14T05:30:26;1.20;;;1.20;;
7583;SDS011;74673;41.756;25.992;2024-02-14T05:32:54;1.37;;;1.30;;
7583;SDS011;74673;41.756;25.992;2024-02-14T05:35:22;1.57;;;1.47;;
7583;SDS011;74673;41.756;25.992;2024-02-14T05:37:48;1.53;;;1.43;;
7583;SDS011;74673;41.756;25.992;2024-02-14T05:40:16;1.47;;;1.40;;
7583;SDS011;74673;41.756;25.992;2024-02-14T05:42:44;1.30;;;1.30;;
7583;SDS011;74673;41.756;25.992;2024-02-14T05:45:11;1.90;;;1.80;;
7583;SDS011;74673;41.756;25.992;2024-02-14T05:47:38;1.40;;;1.40;;
7583;SDS011;74673;41.756;25.992;2024-02-14T05:50:07;1.47;;;1.37;;
7583;SDS011;74673;41.756;25.992;2024-02-14T05:52:36;1.47;;;1.37;;
7583;SDS011;74673;41.756;25.992;2024-02-14T05:55:04;1.13;;;1.13;;
7583;SDS011;74673;41.756;25.992;2024-02-14T05:57:31;1.50;;;1.40;;
7583;SDS011;74673;41.756;25.992;2024-02-14T05:59:58;1.53;;;1.43;;
7583;SDS011;74673;41.756;25.992;2024-02-14T06:02:25;1.27;;;1.27;;
7583;SDS011;74673;41.756;25.992;2024-02-14T06:04:52;1.67;;;1.57;;
7583;SDS011;74673;41.756;25.992;2024-02-14T06:07:20;1.17;;;1.17;;
7583;SDS011;74673;41.756;25.992;2024-02-14T06:09:47;1.33;;;1.33;;
7583;SDS011;74673;41.756;25.992;2024-02-14T06:12:14;2.23;;;1.67;;
7583;SDS011;74673;41.756;25.992;2024-02-14T06:14:41;1.67;;;1.57;;
7583;SDS011;74673;41.756;25.992;2024-02-14T06:17:08;1.37;;;1.37;;
7583;SDS011;74673;41.756;25.992;2024-02-14T06:19:35;2.03;;;1.80;;
7583;SDS011;74673;41.756;25.992;2024-02-14T06:22:04;1.83;;;1.73;;
7583;SDS011;74673;41.756;25.992;2024-02-14T06:24:32;1.27;;;1.27;;
7583;SDS011;74673;41.756;25.992;2024-02-14T06:26:59;1.60;;;1.50;;
7583;SDS011;74673;41.756;25.992;2024-02-14T06:29:26;1.57;;;1.43;;
7583;SDS011;74673;41.756;25.992;2024-02-14T06:31:53;1.63;;;1.53;;
7583;SDS011;74673;41.756;25.992;2024-02-14T06:34:20;1.27;;;1.27;;
7583;SDS011;74673;41.756;25.992;2024-02-14T06:36:47;1.60;;;1.50;;
7583;SDS011;74673;41.756;25.992;2024-02-14T06:39:14;1.70;;;1.60;;
7583;SDS011;74673;41.756;25.992;2024-02-14T06:41:42;1.70;;;1.60;;
7583;SDS011;74673;41.756;25.992;2024-02-14T06:44:10;1.50;;;1.40;;
7583;SDS011;74673;41.756;25.992;2024-02-14T06:46:37;1.77;;;1.67;;
7583;SDS011;74673;41.756;25.992;2024-02-14T06:49:04;1.57;;;1.47;;
7583;SDS011;74673;41.756;25.992;2024-02-14T06:51:31;1.50;;;1.40;;
7583;SDS011;74673;41.756;25.992;2024-02-14T06:53:58;4.93;;;2.70;;
7583;SDS011;74673;41.756;25.992;2024-02-14T06:56:25;2.20;;;1.73;;
7583;SDS011;74673;41.756;25.992;2024-02-14T06:58:53;2.47;;;1.80;;
7583;SDS011;74673;41.756;25.992;2024-02-14T07:01:24;1.50;;;1.50;;
7583;SDS011;74673;41.756;25.992;2024-02-14T07:03:52;1.90;;;1.73;;
7583;SDS011;74673;41.756;25.992;2024-02-14T07:06:19;2.80;;;2.60;;
7583;SDS011;74673;41.756;25.992;2024-02-14T07:08:46;1.53;;;1.43;;
7583;SDS011;74673;41.756;25.992;2024-02-14T07:11:14;1.60;;;1.50;;
7583;SDS011;74673;41.756;25.992;2024-02-14T07:13:41;1.77;;;1.60;;
7583;SDS011;74673;41.756;25.992;2024-02-14T07:16:10;1.43;;;1.33;;
7583;SDS011;74673;41.756;25.992;2024-02-14T07:18:37;1.67;;;1.57;;
7583;SDS011;74673;41.756;25.992;2024-02-14T07:21:04;2.10;;;1.73;;
7583;SDS011;74673;41.756;25.992;2024-02-14T07:23:31;1.90;;;1.80;;
7583;SDS011;74673;41.756;25.992;2024-02-14T07:25:59;1.83;;;1.50;;
7583;SDS011;74673;41.756;25.992;2024-02-14T07:28:26;1.93;;;1.83;;
7583;SDS011;74673;41.756;25.992;2024-02-14T07:30:53;2.23;;;1.57;;
7583;SDS011;74673;41.756;25.992;2024-02-14T07:33:21;1.60;;;1.60;;
7583;SDS011;74673;41.756;25.992;2024-02-14T07:35:49;1.33;;;1.33;;
7583;SDS011;74673;41.756;25.992;2024-02-14T07:38:16;1.60;;;1.50;;
7583;SDS011;74673;41.756;25.992;2024-02-14T07:40:43;4.90;;;2.47;;
7583;SDS011;74673;41.756;25.992;2024-02-14T07:43:10;1.67;;;1.57;;
7583;SDS011;74673;41.756;25.992;2024-02-14T07:45:37;2.20;;;2.10;;
7583;SDS011;74673;41.756;25.992;2024-02-14T07:48:04;1.50;;;1.50;;
7583;SDS011;74673;41.756;25.992;2024-02-14T07:50:34;1.70;;;1.60;;
7583;SDS011;74673;41.756;25.992;2024-02-14T07:53:02;1.60;;;1.50;;
7583;SDS011;74673;41.756;25.992;2024-02-14T07:55:29;2.87;;;2.20;;
7583;SDS011;74673;41.756;25.992;2024-02-14T07:57:56;1.73;;;1.53;;
7583;SDS011;74673;41.756;25.992;2024-02-14T08:00:24;1.70;;;1.60;;
7583;SDS011;74673;41.756;25.992;2024-02-14T08:02:51;1.53;;;1.43;;
7583;SDS011;74673;41.756;25.992;2024-02-14T08:05:18;1.90;;;1.80;;
7583;SDS011;74673;41.756;25.992;2024-02-14T08:07:47;2.47;;;2.23;;
7583;SDS011;74673;41.756;25.992;2024-02-14T08:10:14;2.70;;;2.00;;
7583;SDS011;74673;41.756;25.992;2024-02-14T08:12:41;1.83;;;1.73;;
7583;SDS011;74673;41.756;25.992;2024-02-14T08:15:08;2.40;;;2.00;;
7583;SDS011;74673;41.756;25.992;2024-02-14T08:17:35;2.23;;;2.03;;
7583;SDS011;74673;41.756;25.992;2024-02-14T08:20:03;2.20;;;2.00;;
7583;SDS011;74673;41.756;25.992;2024-02-14T08:22:30;3.50;;;1.70;;
7583;SDS011;74673;41.756;25.992;2024-02-14T08:24:59;2.00;;;1.90;;
7583;SDS011;74673;41.756;25.992;2024-02-14T08:27:26;3.27;;;2.10;;
7583;SDS011;74673;41.756;25.992;2024-02-14T08:29:53;2.20;;;2.00;;
7583;SDS011;74673;41.756;25.992;2024-02-14T08:32:20;2.90;;;2.00;;
7583;SDS011;74673;41.756;25.992;2024-02-14T08:34:47;5.13;;;2.43;;
7583;SDS011;74673;41.756;25.992;2024-02-14T08:37:15;2.00;;;1.90;;
7583;SDS011;74673;41.756;25.992;2024-02-14T08:39:42;2.13;;;1.90;;
7583;SDS011;74673;41.756;25.992;2024-02-14T08:42:11;3.00;;;2.43;;
7583;SDS011;74673;41.756;25.992;2024-02-14T08:44:38;2.40;;;2.20;;
7583;SDS011;74673;41.756;25.992;2024-02-14T08:47:06;1.80;;;1.70;;
7583;SDS011;74673;41.756;25.992;2024-02-14T08:49:34;2.07;;;1.90;;
7583;SDS011;74673;41.756;25.992;2024-02-14T08:52:01;2.23;;;2.00;;
7583;SDS011;74673;41.756;25.992;2024-02-14T08:54:28;1.77;;;1.67;;
7583;SDS011;74673;41.756;25.992;2024-02-14T08:56:57;2.00;;;1.90;;
7583;SDS011;74673;41.756;25.992;2024-02-14T08:59:26;1.97;;;1.87;;
7583;SDS011;74673;41.756;25.992;2024-02-14T09:01:53;2.47;;;2.27;;
7583;SDS011;74673;41.756;25.992;2024-02-14T09:04:20;1.87;;;1.70;;
7583;SDS011;74673;41.756;25.992;2024-02-14T09:06:47;2.03;;;1.83;;
7583;SDS011;74673;41.756;25.992;2024-02-14T09:09:14;1.90;;;1.80;;
7583;SDS011;74673;41.756;25.992;2024-02-14T09:11:41;2.00;;;1.90;;
7583;SDS011;74673;41.756;25.992;2024-02-14T09:14:08;1.30;;;1.30;;
7583;SDS011;74673;41.756;25.992;2024-02-14T09:16:37;2.77;;;2.10;;
7583;SDS011;74673;41.756;25.992;2024-02-14T09:19:04;1.60;;;1.50;;
7583;SDS011;74673;41.756;25.992;2024-02-14T09:21:32;2.67;;;1.70;;
7583;SDS011;74673;41.756;25.992;2024-02-14T09:24:00;2.30;;;1.77;;
7583;SDS011;74673;41.756;25.992;2024-02-14T09:26:28;3.83;;;1.93;;
7583;SDS011;74673;41.756;25.992;2024-02-14T09:28:55;2.67;;;1.97;;
7583;SDS011;74673;41.756;25.992;2024-02-14T09:31:22;2.00;;;1.90;;
7583;SDS011;74673;41.756;25.992;2024-02-14T09:33:50;3.27;;;2.70;;
7583;SDS011;74673;41.756;25.992;2024-02-14T09:36:21;2.50;;;2.00;;
7583;SDS011;74673;41.756;25.992;2024-02-14T09:38:48;2.13;;;1.93;;
7583;SDS011;74673;41.756;25.992;2024-02-14T09:41:17;1.90;;;1.80;;
7583;SDS011;74673;41.756;25.992;2024-02-14T09:43:48;1.43;;;1.40;;
7583;SDS011;74673;41.756;25.992;2024-02-14T09:46:15;3.50;;;2.10;;
7583;SDS011;74673;41.756;25.992;2024-02-14T09:48:43;2.37;;;2.20;;
7583;SDS011;74673;41.756;25.992;2024-02-14T09:51:12;1.70;;;1.60;;
7583;SDS011;74673;41.756;25.992;2024-02-14T09:53:39;1.80;;;1.57;;
7583;SDS011;74673;41.756;25.992;2024-02-14T09:56:08;1.60;;;1.60;;
7583;SDS011;74673;41.756;25.992;2024-02-14T09:58:36;1.27;;;1.20;;
7583;SDS011;74673;41.756;25.992;2024-02-14T10:01:03;1.57;;;1.47;;
7583;SDS011;74673;41.756;25.992;2024-02-14T10:03:31;1.70;;;1.60;;
7583;SDS011;74673;41.756;25.992;2024-02-14T10:05:59;1.30;;;1.30;;
7583;SDS011;74673;41.756;25.992;2024-02-14T10:08:27;1.30;;;1.20;;
7583;SDS011;74673;41.756;25.992;2024-02-14T10:10:56;1.23;;;1.20;;
7583;SDS011;74673;41.756;25.992;2024-02-14T10:13:26;1.10;;;1.10;;
7583;SDS011;74673;41.756;25.992;2024-02-14T10:15:53;1.33;;;1.30;;
7583;SDS011;74673;41.756;25.992;2024-02-14T10:18:21;1.83;;;1.63;;
7583;SDS011;74673;41.756;25.992;2024-02-14T10:20:54;1.40;;;1.40;;
7583;SDS011;74673;41.756;25.992;2024-02-14T10:23:21;2.03;;;1.50;;
7583;SDS011;74673;41.756;25.992;2024-02-14T10:25:51;1.77;;;1.67;;
7583;SDS011;74673;41.756;25.992;2024-02-14T10:28:21;2.83;;;2.27;;
7583;SDS011;74673;41.756;25.992;2024-02-14T10:30:48;2.03;;;1.63;;
7583;SDS011;74673;41.756;25.992;2024-02-14T10:33:15;8.57;;;3.97;;
7583;SDS011;74673;41.756;25.992;2024-02-14T10:35:42;1.97;;;1.87;;
7583;SDS011;74673;41.756;25.992;2024-02-14T10:38:10;2.80;;;2.50;;
7583;SDS011;74673;41.756;25.992;2024-02-14T10:40:38;1.73;;;1.50;;
7583;SDS011;74673;41.756;25.992;2024-02-14T10:43:06;1.70;;;1.60;;
7583;SDS011;74673;41.756;25.992;2024-02-14T10:45:35;3.47;;;2.13;;
7583;SDS011;74673;41.756;25.992;2024-02-14T10:48:04;4.70;;;3.33;;
7583;SDS011;74673;41.756;25.992;2024-02-14T10:50:32;1.90;;;1.80;;
7583;SDS011;74673;41.756;25.992;2024-02-14T10:53:03;2.13;;;2.00;;
7583;SDS011;74673;41.756;25.992;2024-02-14T10:55:32;1.80;;;1.57;;
7583;SDS011;74673;41.756;25.992;2024-02-14T10:58:00;2.23;;;1.63;;
7583;SDS011;74673;41.756;25.992;2024-02-14T11:00:29;1.73;;;1.63;;
7583;SDS011;74673;41.756;25.992;2024-02-14T11:02:57;1.73;;;1.50;;
7583;SDS011;74673;41.756;25.992;2024-02-14T11:05:25;2.13;;;1.80;;
7583;SDS011;74673;41.756;25.992;2024-02-14T11:07:52;3.30;;;1.90;;
7583;SDS011;74673;41.756;25.992;2024-02-14T11:10:20;2.17;;;1.83;;
7583;SDS011;74673;41.756;25.992;2024-02-14T11:12:48;2.20;;;1.83;;
7583;SDS011;74673;41.756;25.992;2024-02-14T11:15:16;1.80;;;1.70;;
7583;SDS011;74673;41.756;25.992;2024-02-14T11:17:45;2.13;;;1.93;;
7583;SDS011;74673;41.756;25.992;2024-02-14T11:20:17;5.37;;;3.93;;
7583;SDS011;74673;41.756;25.992;2024-02-14T11:22:54;6.07;;;4.60;;
7583;SDS011;74673;41.756;25.992;2024-02-14T11:25:22;4.97;;;2.83;;
7583;SDS011;74673;41.756;25.992;2024-02-14T11:27:51;3.43;;;3.13;;
7583;SDS011;74673;41.756;25.992;2024-02-14T11:30:28;9.00;;;5.10;;
7583;SDS011;74673;41.756;25.992;2024-02-14T11:33:09;3.70;;;3.27;;
7583;SDS011;74673;41.756;25.992;2024-02-14T11:35:40;2.17;;;2.07;;
7583;SDS011;74673;41.756;25.992;2024-02-14T11:38:07;1.67;;;1.57;;
7583;SDS011;74673;41.756;25.992;2024-02-14T11:40:35;4.37;;;3.97;;
7583;SDS011;74673;41.756;25.992;2024-02-14T11:43:03;3.00;;;2.17;;
7583;SDS011;74673;41.756;25.992;2024-02-14T11:45:31;2.23;;;2.03;;
7583;SDS011;74673;41.756;25.992;2024-02-14T11:47:58;2.80;;;2.10;;
7583;SDS011;74673;41.756;25.992;2024-02-14T11:50:26;3.77;;;2.77;;
7583;SDS011;74673;41.756;25.992;2024-02-14T11:52:54;2.97;;;2.77;;
7583;SDS011;74673;41.756;25.992;2024-02-14T11:55:26;2.60;;;2.10;;
7583;SDS011;74673;41.756;25.992;2024-02-14T11:57:54;2.33;;;2.13;;
7583;SDS011;74673;41.756;25.992;2024-02-14T12:00:21;1.83;;;1.73;;
7583;SDS011;74673;41.756;25.992;2024-02-14T12:02:49;2.10;;;1.90;;
7583;SDS011;74673;41.756;25.992;2024-02-14T12:05:16;2.10;;;2.00;;
7583;SDS011;74673;41.756;25.992;2024-02-14T12:07:45;2.03;;;1.90;;
7583;SDS011;74673;41.756;25.992;2024-02-14T12:10:12;1.83;;;1.73;;
7583;SDS011;74673;41.756;25.992;2024-02-14T12:12:40;1.73;;;1.63;;
7583;SDS011;74673;41.756;25.992;2024-02-14T12:15:09;2.37;;;2.27;;
7583;SDS011;74673;41.756;25.992;2024-02-14T12:17:36;2.57;;;2.30;;
7583;SDS011;74673;41.756;25.992;2024-02-14T12:20:08;2.03;;;1.93;;
7583;SDS011;74673;41.756;25.992;2024-02-14T12:22:36;2.70;;;2.50;;
7583;SDS011;74673;41.756;25.992;2024-02-14T12:25:06;2.43;;;2.23;;
7583;SDS011;74673;41.756;25.992;2024-02-14T12:27:36;3.63;;;2.97;;
7583;SDS011;74673;41.756;25.992;2024-02-14T12:30:03;3.23;;;3.00;;
7583;SDS011;74673;41.756;25.992;2024-02-14T12:32:31;2.97;;;2.77;;
7583;SDS011;74673;41.756;25.992;2024-02-14T12:34:58;7.43;;;2.83;;
7583;SDS011;74673;41.756;25.992;2024-02-14T12:37:25;4.60;;;3.20;;
7583;SDS011;74673;41.756;25.992;2024-02-14T12:39:52;2.43;;;2.27;;
7583;SDS011;74673;41.756;25.992;2024-02-14T12:42:22;3.40;;;1.97;;
7583;SDS011;74673;41.756;25.992;2024-02-14T12:44:51;2.13;;;2.03;;
7583;SDS011;74673;41.756;25.992;2024-02-14T12:47:19;1.80;;;1.70;;
7583;SDS011;74673;41.756;25.992;2024-02-14T12:49:47;1.93;;;1.73;;
7583;SDS011;74673;41.756;25.992;2024-02-14T12:52:15;1.90;;;1.70;;
7583;SDS011;74673;41.756;25.992;2024-02-14T12:54:43;1.97;;;1.80;;
7583;SDS011;74673;41.756;25.992;2024-02-14T12:57:10;2.50;;;1.93;;
7583;SDS011;74673;41.756;25.992;2024-02-14T12:59:39;1.70;;;1.60;;
7583;SDS011;74673;41.756;25.992;2024-02-14T13:02:06;1.60;;;1.60;;
7583;SDS011;74673;41.756;25.992;2024-02-14T13:04:33;1.50;;;1.50;;
7583;SDS011;74673;41.756;25.992;2024-02-14T13:07:01;2.03;;;1.93;;
7583;SDS011;74673;41.756;25.992;2024-02-14T13:09:28;2.30;;;2.03;;
7583;SDS011;74673;41.756;25.992;2024-02-14T13:11:55;2.20;;;2.00;;
7583;SDS011;74673;41.756;25.992;2024-02-14T13:14:22;1.93;;;1.83;;
7583;SDS011;74673;41.756;25.992;2024-02-14T13:16:51;2.60;;;2.40;;
7583;SDS011;74673;41.756;25.992;2024-02-14T13:19:18;2.57;;;2.37;;
7583;SDS011;74673;41.756;25.992;2024-02-14T13:21:46;3.27;;;2.67;;
7583;SDS011;74673;41.756;25.992;2024-02-14T13:24:13;2.43;;;2.33;;
7583;SDS011;74673;41.756;25.992;2024-02-14T13:26:40;2.70;;;2.20;;
7583;SDS011;74673;41.756;25.992;2024-02-14T13:29:07;3.50;;;2.30;;
7583;SDS011;74673;41.756;25.992;2024-02-14T13:31:34;3.00;;;2.50;;
7583;SDS011;74673;41.756;25.992;2024-02-14T13:34:02;3.37;;;2.60;;
7583;SDS011;74673;41.756;25.992;2024-02-14T13:36:30;3.13;;;2.73;;
7583;SDS011;74673;41.756;25.992;2024-02-14T13:38:57;3.23;;;2.87;;
7583;SDS011;74673;41.756;25.992;2024-02-14T13:41:25;3.40;;;3.10;;
7583;SDS011;74673;41.756;25.992;2024-02-14T13:43:53;2.80;;;2.60;;
7583;SDS011;74673;41.756;25.992;2024-02-14T13:46:20;2.80;;;2.60;;
7583;SDS011;74673;41.756;25.992;2024-02-14T13:48:47;2.10;;;1.97;;
7583;SDS011;74673;41.756;25.992;2024-02-14T13:51:15;2.07;;;1.97;;
7583;SDS011;74673;41.756;25.992;2024-02-14T13:53:42;2.00;;;1.90;;
7583;SDS011;74673;41.756;25.992;2024-02-14T13:56:09;2.40;;;2.30;;
7583;SDS011;74673;41.756;25.992;2024-02-14T13:58:36;2.33;;;2.23;;
7583;SDS011;74673;41.756;25.992;2024-02-14T14:01:04;2.30;;;2.20;;
7583;SDS011;74673;41.756;25.992;2024-02-14T14:03:32;2.40;;;2.20;;
7583;SDS011;74673;41.756;25.992;2024-02-14T14:06:02;1.90;;;1.80;;
7583;SDS011;74673;41.756;25.992;2024-02-14T14:08:32;3.23;;;2.33;;
7583;SDS011;74673;41.756;25.992;2024-02-14T14:11:01;2.33;;;2.23;;
7583;SDS011;74673;41.756;25.992;2024-02-14T14:13:28;2.30;;;2.10;;
7583;SDS011;74673;41.756;25.992;2024-02-14T14:15:56;2.23;;;2.03;;
7583;SDS011;74673;41.756;25.992;2024-02-14T14:18:23;2.10;;;2.00;;
7583;SDS011;74673;41.756;25.992;2024-02-14T14:20:50;2.20;;;1.77;;
7583;SDS011;74673;41.756;25.992;2024-02-14T14:23:17;2.27;;;1.87;;
7583;SDS011;74673;41.756;25.992;2024-02-14T14:25:46;2.00;;;1.90;;
7583;SDS011;74673;41.756;25.992;2024-02-14T14:28:13;1.80;;;1.70;;
7583;SDS011;74673;41.756;25.992;2024-02-14T14:30:40;2.10;;;1.90;;
7583;SDS011;74673;41.756;25.992;2024-02-14T14:33:07;1.63;;;1.50;;
7583;SDS011;74673;41.756;25.992;2024-02-14T14:35:34;2.53;;;2.43;;
7583;SDS011;74673;41.756;25.992;2024-02-14T14:38:01;3.00;;;2.77;;
7583;SDS011;74673;41.756;25.992;2024-02-14T14:40:29;3.47;;;2.77;;
7583;SDS011;74673;41.756;25.992;2024-02-14T14:42:57;3.57;;;2.20;;
7583;SDS011;74673;41.756;25.992;2024-02-14T14:45:25;2.20;;;2.10;;
7583;SDS011;74673;41.756;25.992;2024-02-14T14:47:53;3.93;;;2.93;;
7583;SDS011;74673;41.756;25.992;2024-02-14T14:50:21;2.47;;;2.27;;